Home > Products > Valid Products > TAF

000
FTUS43 KIND 280819 AAA
TAFIND
TAF AMD
KIND 280819Z 2808/2912 16008KT P6SM VCSH SCT060 BKN130
     FM281200 17007KT P6SM BKN100
     FM281600 19012G22KT P6SM BKN040 PROB30 2819/2823 P6SM -TSRA
      OVC040CB
     FM290100 17009KT P6SM BKN050=



000
FTUS43 KIND 272325
TAFIND
TAF
KIND 272325Z 2800/2906 19010G18KT P6SM FEW060 SCT150
     FM280100 19008KT P6SM SCT040 BKN150
     FM280600 17006KT P6SM VCSH SCT060 BKN150
     FM281200 17007KT P6SM BKN100
     FM281600 19012G22KT P6SM BKN040
     FM290000 18008KT P6SM BKN050=



000
FTUS43 KIND 272325
TAFLAF
TAF
KLAF 272325Z 2800/2824 20011G20KT P6SM VCTS SCT060CB BKN100
     FM280100 18008KT P6SM VCTS SCT040CB BKN120
     FM280300 17007KT P6SM VCSH SCT040 BKN080
     FM281200 17007KT P6SM BKN100
     FM281600 21012G22KT P6SM BKN040
      AMD LTD TO CLD VIS AND WIND 2801/2813=



000
FTUS43 KIND 271720
TAFIND
TAF
KIND 271720Z 2718/2824 19009KT P6SM SCT040 BKN150
     FM272100 19010KT P6SM VCTS SCT040CB BKN150
     FM272300 19008KT P6SM SCT040 BKN150
     FM280100 17006KT P6SM BKN150
     FM281600 19008KT P6SM SCT040 BKN150=



000
FTUS43 KIND 271720
TAFLAF
TAF
KLAF 271720Z 2718/2818 18011KT P6SM VCTS SCT040CB BKN150
     FM280100 17006KT P6SM VCTS SCT040CB BKN120
     FM281600 19010KT P6SM SCT040 BKN120=



000
FTUS43 KIND 271120
TAFIND
TAF
KIND 271120Z 2712/2818 18008KT P6SM SCT050 BKN150
     FM271800 19010G18KT P6SM SCT050 BKN150
     FM280000 17007KT P6SM BKN120=



000
FTUS43 KIND 271120
TAFLAF
TAF
KLAF 271120Z 2712/2812 18006KT P6SM SCT050 BKN180
     FM271800 18010G18KT P6SM SCT050 BKN150
     FM280000 16005KT P6SM BKN090
      AMD LTD TO CLD VIS AND WIND TIL 271300=



000
FTUS43 KIND 261720
TAFLAF
TAF
KLAF 261720Z 2618/2718 VRB06KT P6SM VCTS SCT015CB BKN100
     FM261830 20008KT P6SM SCT040 BKN100
     FM270000 18007KT P6SM SCT100 BKN250=



000
FTUS43 KIND 261720
TAFIND
TAF
KIND 261720Z 2618/2724 25011KT P6SM VCTS SCT020 BKN050CB
     FM261900 20011KT P6SM SCT030 BKN100
     FM270000 19007KT P6SM SCT100 BKN250=



000
FTUS43 KIND 261317 AAB
TAFIND
TAF AMD
KIND 261317Z 2613/2718 21010KT P6SM SCT020 BKN050
      TEMPO 2613/2616 BKN020 OVC050
     FM261600 VRB15G25KT 6SM -TSRA BR BKN025CB
     FM261730 VRB06KT P6SM VCTS SCT025CB BKN100
     FM261900 20011KT P6SM VCTS SCT025CB BKN100
     FM270200 18007KT P6SM BKN100=



000
FTUS43 KIND 260826 AAB
TAFIND
TAF AMD
KIND 260826Z 2608/2712 20008KT P6SM BKN020 BKN070
     FM261600 21010KT P6SM SCT025 SCT080
     FM261900 21010KT P6SM BKN040
     FM270200 17008KT P6SM SCT050 BKN200=



000
FTUS43 KIND 260613 AAA
TAFLAF
TAF AMD
KLAF 260613Z 2606/2706 22006KT P6SM BKN015 BKN100
     FM260900 22003KT 4SM BR BKN015
     FM261400 21008KT P6SM SCT025 BKN080
     FM261900 21008KT P6SM BKN040
      AMD LTD TO CLD VIS AND WIND TIL 261300=



000
FTUS43 KIND 260524
TAFLAF
TAF
KLAF 260524Z 2606/2706 22006KT P6SM FEW025 BKN100
     FM260900 22003KT 4SM BR BKN025
     FM261400 21008KT P6SM SCT025 BKN080
     FM261900 21008KT P6SM BKN040
      AMD LTD TO CLD VIS AND WIND TIL 261300=



000
FTUS43 KIND 260524
TAFIND
TAF
KIND 260524Z 2606/2712 19008KT P6SM BKN015 BKN150
     FM260900 21004KT 5SM BR BKN015 BKN100
     FM261300 21010KT P6SM SCT025 SCT080
     FM261900 21010KT P6SM BKN040
     FM270200 17008KT P6SM SCT050 BKN200=



000
FTUS43 KIND 260223 AAA
TAFIND
TAF AMD
KIND 260223Z 2602/2706 19007KT P6SM FEW050 BKN150
     FM260600 20006KT P6SM SCT080 BKN150
     FM260900 21004KT 4SM BR SCT080
     FM261300 21010KT P6SM SCT040 SCT080
     FM261900 21010KT P6SM SCT025 BKN040=



000
FTUS43 KIND 251725
TAFLAF
TAF
KLAF 251725Z 2518/2618 18009KT P6SM SCT040 BKN250
     FM252100 20008KT P6SM VCTS SCT040CB BKN100
     FM260600 20006KT P6SM BKN080
     FM261100 22003KT 3SM BR SCT080
     FM261330 21008KT P6SM SCT040 SCT080=



000
FTUS43 KIND 251725
TAFIND
TAF
KIND 251725Z 2518/2624 20009KT P6SM FEW035 BKN250
     FM252000 19009KT P6SM VCTS SCT040CB BKN100
     FM260600 20006KT P6SM BKN080
     FM260900 21004KT 4SM BR SCT080
     FM261330 21010KT P6SM SCT040 SCT080
     FM261900 21010KT P6SM BKN045=



    US Dept of Commerce
    National Oceanic and Atmospheric Administration
    National Weather Service
    1325 East West Highway
    Silver Spring, MD 20910
    Page Author: NWS Internet Services Team
Disclaimer
Information Quality
Credits
Glossary
Privacy Policy
Freedom of Information Act (FOIA)
About Us
Career Opportunities